Time;durP1;ratioP1;P1;durP2;ratioP2;P2;SDS_P1;SDS_P2;PMS_P1;PMS_P2;Temp;Humidity;BMP_temperature;BMP_pressure;BME280_temperature;BME280_humidity;BME280_pressure;Samples;Min_cycle;Max_cycle;Signal;HPM_P1;HPM_P2
2024/03/22 00:01:42;;;;;;;;;;;;;;;3.71;74.59;93083.72;5025722;28;20008;-75
2024/03/22 00:04:07;;;;;;;;;;;;;;;3.64;74.17;93087.91;5024362;28;19925;-74
2024/03/22 00:06:32;;;;;;;;;;;;;;;3.63;75.64;93088.88;5023111;28;20362;-74
2024/03/22 00:08:58;;;;;;;;;;;;;;;3.59;76.66;93082.53;5026707;28;20377;-75
2024/03/22 00:11:23;;;;;;;;;;;;;;;3.57;76.94;93084.47;5026696;28;19923;-75
2024/03/22 00:13:48;;;;;;;;;;;;;;;3.58;77.04;93089.38;5013596;28;19921;-74
2024/03/22 00:16:13;;;;;;;;;;;;;;;3.55;76.57;93087.16;5011086;28;20047;-74
2024/03/22 00:18:39;;;;;;;;;;;;;;;3.56;76.46;93087.97;5026528;28;20897;-74
2024/03/22 00:21:04;;;;;;;;;;;;;;;3.58;76.44;93089.38;5026940;28;19921;-74
2024/03/22 00:23:30;;;;;;;;;;;;;;;3.55;76.31;93082.09;5027313;28;19913;-74
2024/03/22 00:25:56;;;;;;;;;;;;;;;3.45;77.00;93078.97;5024126;28;19920;-74
2024/03/22 00:28:21;;;;;;;;;;;;;;;3.38;75.42;93076.31;5027874;28;20281;-74
2024/03/22 00:30:46;;;;;;;;;;;;;;;3.34;76.65;93070.78;5025623;28;20281;-74
2024/03/22 00:33:12;;;;;;;;;;;;;;;3.31;76.19;93076.22;5025020;28;20289;-75
2024/03/22 00:35:37;;;;;;;;;;;;;;;3.25;77.41;93076.09;5025266;28;19966;-74
2024/03/22 00:38:02;;;;;;;;;;;;;;;3.18;76.66;93086.91;5024245;28;20059;-75
2024/03/22 00:40:28;;;;;;;;;;;;;;;3.24;77.24;93077.06;5027866;28;19994;-75
2024/03/22 00:42:53;;;;;;;;;;;;;;;3.18;77.36;93073.41;5025105;28;20672;-76
2024/03/22 00:45:18;;;;;;;;;;;;;;;3.18;78.46;93081.03;5026200;28;19917;-74
2024/03/22 00:47:44;;;;;;;;;;;;;;;3.14;78.57;93083.13;5024769;28;19925;-74
2024/03/22 00:50:09;;;;;;;;;;;;;;;3.14;78.32;93072.19;5027271;28;19917;-74
2024/03/22 00:52:34;;;;;;;;;;;;;;;3.12;78.46;93074.09;5027177;28;20411;-74
2024/03/22 00:55:00;;;;;;;;;;;;;;;3.04;78.32;93073.19;5026785;28;19921;-73
2024/03/22 00:57:25;;;;;;;;;;;;;;;3.04;78.61;93073.19;5027176;28;19920;-74
2024/03/22 00:59:51;;;;;;;;;;;;;;;3.03;79.38;93074.16;5024208;28;20384;-74
2024/03/22 01:02:16;;;;;;;;;;;;;;;3.07;78.85;93067.75;5022681;28;19916;-73
2024/03/22 01:04:41;;;;;;;;;;;;;;;3.09;78.68;93074.44;5025869;28;19963;-73
2024/03/22 01:07:06;;;;;;;;;;;;;;;3.07;79.14;93072.84;5022456;28;19917;-73
2024/03/22 01:09:32;;;;;;;;;;;;;;;3.07;78.94;93072.06;5024733;28;19913;-74
2024/03/22 01:11:57;;;;;;;;;;;;;;;3.07;78.77;93074.59;5025253;28;19940;-74
2024/03/22 01:14:22;;;;;;;;;;;;;;;3.05;79.43;93066.34;5027338;28;19912;-74
2024/03/22 01:16:48;;;;;;;;;;;;;;;3.11;78.89;93085.22;5025202;28;19917;-74
2024/03/22 01:19:13;;;;;;;;;;;;;;;3.08;78.32;93073.63;5023725;28;19925;-73
2024/03/22 01:21:38;;;;;;;;;;;;;;;3.10;79.03;93071.72;5021899;28;19990;-74
2024/03/22 01:24:04;;;;;;;;;;;;;;;3.08;77.96;93078.72;5027469;28;19917;-74
2024/03/22 01:26:29;;;;;;;;;;;;;;;3.07;77.75;93082.22;5024571;28;19921;-74
2024/03/22 01:28:54;;;;;;;;;;;;;;;2.99;77.86;93083.03;5023685;28;19917;-73
2024/03/22 01:31:20;;;;;;;;;;;;;;;2.98;78.71;93080.66;5024894;28;20357;-73
2024/03/22 01:33:45;;;;;;;;;;;;;;;2.99;79.46;93083.03;5025890;28;19921;-74
2024/03/22 01:36:10;;;;;;;;;;;;;;;2.96;79.03;93078.28;5022822;28;20428;-74
2024/03/22 01:38:35;;;;;;;;;;;;;;;2.91;79.23;93081.34;5026202;28;19913;-74
2024/03/22 01:41:01;;;;;;;;;;;;;;;2.87;79.43;93086.91;5025642;28;19924;-73
2024/03/22 01:43:26;;;;;;;;;;;;;;;2.88;79.96;93083.41;5026117;28;19921;-74
2024/03/22 01:45:51;;;;;;;;;;;;;;;2.90;79.60;93086.56;5024377;28;19917;-75
2024/03/22 01:48:17;;;;;;;;;;;;;;;2.89;79.17;93077.38;5027359;28;19913;-74
2024/03/22 01:50:43;;;;;;;;;;;;;;;2.85;79.40;93079.47;5025776;28;19951;-74
2024/03/22 01:53:08;;;;;;;;;;;;;;;2.86;79.00;93086.09;5025366;28;19925;-74
2024/03/22 01:55:34;;;;;;;;;;;;;;;2.89;79.78;93077.38;5022917;28;20373;-74
2024/03/22 01:57:59;;;;;;;;;;;;;;;2.88;79.29;93081.66;5024411;28;20008;-74
2024/03/22 02:00:24;;;;;;;;;;;;;;;2.90;79.47;93078.97;5026227;28;19917;-74
2024/03/22 02:02:50;;;;;;;;;;;;;;;2.88;79.59;93076.56;5026561;28;19996;-74
2024/03/22 02:05:19;;;;;;;;;;;;;;;2.91;79.71;93078.00;5023967;28;19955;-74
2024/03/22 02:07:44;;;;;;;;;;;;;;;2.89;80.52;93075.66;5027217;28;19996;-74
2024/03/22 02:10:12;;;;;;;;;;;;;;;2.80;79.93;93082.50;5023117;28;20015;-74
2024/03/22 02:12:38;;;;;;;;;;;;;;;2.76;78.84;93076.16;5025782;28;19917;-74
2024/03/22 02:15:04;;;;;;;;;;;;;;;2.71;79.14;93082.69;5024594;28;20353;-74
2024/03/22 02:17:29;;;;;;;;;;;;;;;2.67;79.24;93072.88;5025164;28;19917;-74
2024/03/22 02:19:54;;;;;;;;;;;;;;;2.57;79.43;93074.00;5023765;28;19917;-74
2024/03/22 02:22:19;;;;;;;;;;;;;;;2.49;80.04;93080.69;5025368;28;19921;-73
2024/03/22 02:24:45;;;;;;;;;;;;;;;2.44;80.24;93082.16;5024935;28;19921;-74
2024/03/22 02:27:10;;;;;;;;;;;;;;;2.44;80.53;93089.75;5021706;28;19921;-74
2024/03/22 02:29:35;;;;;;;;;;;;;;;2.43;80.45;93083.88;5027117;28;19998;-74
2024/03/22 02:32:01;;;;;;;;;;;;;;;2.39;80.60;93090.22;5025399;28;20356;-74
2024/03/22 02:34:26;;;;;;;;;;;;;;;2.37;79.92;93094.69;5024959;28;20337;-74
2024/03/22 02:36:51;;;;;;;;;;;;;;;2.38;79.47;93091.19;5027174;28;19917;-74
2024/03/22 02:39:17;;;;;;;;;;;;;;;2.34;80.00;93087.38;5026500;28;19924;-73
2024/03/22 02:41:42;;;;;;;;;;;;;;;2.35;79.78;93092.28;5027870;28;19913;-74
2024/03/22 02:44:07;;;;;;;;;;;;;;;2.34;79.58;93094.97;5030757;28;19925;-74
2024/03/22 02:46:33;;;;;;;;;;;;;;;2.33;79.56;93094.22;5030698;28;20542;-75
2024/03/22 02:48:58;;;;;;;;;;;;;;;2.34;79.75;93095.78;5024970;28;20380;-74
2024/03/22 02:51:24;;;;;;;;;;;;;;;2.33;80.21;93095.94;5028392;28;20356;-74
2024/03/22 02:53:50;;;;;;;;;;;;;;;2.28;80.27;93104.03;5029299;28;20285;-74
2024/03/22 02:56:15;;;;;;;;;;;;;;;2.22;79.94;93102.16;5026292;28;19913;-75
2024/03/22 02:58:40;;;;;;;;;;;;;;;2.18;80.68;93113.56;5029107;28;20048;-74
2024/03/22 03:01:06;;;;;;;;;;;;;;;2.19;81.28;93105.81;5029081;28;19913;-74
2024/03/22 03:03:31;;;;;;;;;;;;;;;2.16;80.83;93110.41;5029925;28;20434;-74
2024/03/22 03:05:56;;;;;;;;;;;;;;;2.12;80.57;93113.25;5025453;28;19920;-74
2024/03/22 03:08:22;;;;;;;;;;;;;;;2.18;80.58;93106.72;5029928;28;19924;-75
2024/03/22 03:10:47;;;;;;;;;;;;;;;2.14;80.96;93113.88;5022502;28;19927;-74
2024/03/22 03:13:12;;;;;;;;;;;;;;;2.13;81.10;93108.97;5028456;28;19917;-74
2024/03/22 03:15:37;;;;;;;;;;;;;;;2.11;81.13;93113.41;5029576;28;19939;-74
2024/03/22 03:18:03;;;;;;;;;;;;;;;2.08;81.19;93111.19;5026522;28;19952;-74
2024/03/22 03:20:29;;;;;;;;;;;;;;;2.07;81.84;93107.06;5028029;28;19971;-75
2024/03/22 03:22:55;;;;;;;;;;;;;;;2.07;81.63;93112.13;5027423;28;20391;-74
2024/03/22 03:25:20;;;;;;;;;;;;;;;2.06;82.00;93115.63;5028699;28;19913;-74
2024/03/22 03:27:46;;;;;;;;;;;;;;;2.07;82.24;93110.41;5028333;28;19921;-74
2024/03/22 03:30:11;;;;;;;;;;;;;;;2.06;82.08;93110.53;5029781;28;19917;-75
2024/03/22 03:32:36;;;;;;;;;;;;;;;2.03;81.92;93110.88;5026117;28;19928;-75
2024/03/22 03:35:02;;;;;;;;;;;;;;;2.04;82.91;93109.94;5027828;28;20247;-76
2024/03/22 03:37:27;;;;;;;;;;;;;;;2.04;82.60;93105.63;5025808;28;20246;-75
2024/03/22 03:39:52;;;;;;;;;;;;;;;2.04;82.30;93113.22;5026715;28;19917;-76
2024/03/22 03:42:18;;;;;;;;;;;;;;;1.99;82.00;93110.41;5028008;28;19921;-76
2024/03/22 03:44:43;;;;;;;;;;;;;;;1.99;81.69;93118.00;5029038;28;19960;-75
2024/03/22 03:47:08;;;;;;;;;;;;;;;1.96;82.15;93114.06;5029203;28;19948;-76
2024/03/22 03:49:34;;;;;;;;;;;;;;;1.95;81.90;93114.97;5025259;28;19947;-76
2024/03/22 03:51:59;;;;;;;;;;;;;;;1.93;82.26;93111.03;5028178;28;20285;-76
2024/03/22 03:54:24;;;;;;;;;;;;;;;1.90;82.36;93113.88;5025710;28;19917;-76
2024/03/22 03:56:50;;;;;;;;;;;;;;;1.81;83.38;93120.69;5025935;28;19921;-76
2024/03/22 03:59:15;;;;;;;;;;;;;;;1.76;84.30;93127.97;5028645;28;19992;-76
2024/03/22 04:01:40;;;;;;;;;;;;;;;1.78;83.94;93126.06;5028149;28;19917;-76
2024/03/22 04:04:06;;;;;;;;;;;;;;;1.78;84.81;93124.34;5023028;28;19923;-76
2024/03/22 04:06:31;;;;;;;;;;;;;;;1.78;85.50;93126.88;5027729;28;19962;-76
2024/03/22 04:08:57;;;;;;;;;;;;;;;1.80;85.41;93132.56;5027135;28;19913;-76
2024/03/22 04:11:22;;;;;;;;;;;;;;;1.82;85.66;93125.63;5019042;28;19920;-76
2024/03/22 04:13:48;;;;;;;;;;;;;;;1.82;85.47;93134.94;5026050;28;19996;-75
2024/03/22 04:16:13;;;;;;;;;;;;;;;1.80;84.61;93135.09;5028461;28;19917;-75
2024/03/22 04:18:39;;;;;;;;;;;;;;;1.81;84.80;93143.50;5028558;28;19916;-75
2024/03/22 04:21:04;;;;;;;;;;;;;;;1.86;83.95;93143.81;5021352;28;19913;-74
2024/03/22 04:23:30;;;;;;;;;;;;;;;1.85;83.70;93140.47;5026650;28;20317;-74
2024/03/22 04:25:59;;;;;;;;;;;;;;;1.84;83.75;93143.16;5028498;28;19912;-74
2024/03/22 04:28:25;;;;;;;;;;;;;;;1.81;83.42;93146.81;5026165;28;19947;-74
2024/03/22 04:31:00;;;;;;;;;;;;;;;1.83;83.50;93150.00;5028153;28;20019;-75
2024/03/22 04:33:26;;;;;;;;;;;;;;;1.75;83.12;93152.50;5027397;28;19917;-75
2024/03/22 04:35:51;;;;;;;;;;;;;;;1.70;83.82;93150.44;5023191;28;19917;-75
2024/03/22 04:38:17;;;;;;;;;;;;;;;1.69;84.00;93155.66;5015596;28;20015;-75
2024/03/22 04:40:42;;;;;;;;;;;;;;;1.68;84.26;93154.88;5028533;28;20007;-75
2024/03/22 04:43:08;;;;;;;;;;;;;;;1.65;84.58;93155.19;5023680;28;19936;-75
2024/03/22 04:45:33;;;;;;;;;;;;;;;1.63;84.37;93161.34;5026219;28;20014;-74
2024/03/22 04:47:59;;;;;;;;;;;;;;;1.57;84.09;93161.03;5027756;28;19917;-75
2024/03/22 04:50:24;;;;;;;;;;;;;;;1.51;84.51;93153.25;5024794;28;19913;-76
2024/03/22 04:52:49;;;;;;;;;;;;;;;1.59;84.84;93159.13;5029271;28;19917;-75
2024/03/22 04:55:15;;;;;;;;;;;;;;;1.60;85.38;93159.91;5036096;28;19924;-75
2024/03/22 04:57:40;;;;;;;;;;;;;;;1.65;85.41;93164.50;5009965;28;19916;-75
2024/03/22 05:00:08;;;;;;;;;;;;;;;1.66;84.44;93161.81;5038376;28;20309;-75
2024/03/22 05:02:33;;;;;;;;;;;;;;;1.73;84.39;93160.25;5038380;28;19943;-74
2024/03/22 05:04:59;;;;;;;;;;;;;;;1.78;84.86;93161.53;5043488;28;20683;-75
2024/03/22 05:07:24;;;;;;;;;;;;;;;1.81;85.67;93163.75;5038042;28;19921;-74
2024/03/22 05:09:49;;;;;;;;;;;;;;;1.85;86.14;93165.81;5035846;28;19924;-74
2024/03/22 05:12:15;;;;;;;;;;;;;;;1.87;86.80;93170.72;5026038;28;20340;-75
2024/03/22 05:14:40;;;;;;;;;;;;;;;1.85;85.26;93167.56;5032810;28;19924;-75
2024/03/22 05:17:05;;;;;;;;;;;;;;;1.89;84.86;93173.09;5038995;28;20319;-74
2024/03/22 05:19:31;;;;;;;;;;;;;;;1.86;85.21;93167.38;5031932;28;20336;-74
2024/03/22 05:21:56;;;;;;;;;;;;;;;2.01;84.65;93169.31;5023725;28;19995;-74
2024/03/22 05:24:22;;;;;;;;;;;;;;;2.02;85.46;93173.41;5040518;28;19959;-75
2024/03/22 05:26:47;;;;;;;;;;;;;;;2.10;85.34;93177.69;5033010;28;19917;-74
2024/03/22 05:29:12;;;;;;;;;;;;;;;1.96;85.02;93143.66;5036647;28;20062;-74
2024/03/22 05:31:45;;;;;;;;;;;;;;;2.26;84.82;93179.44;5042487;28;19919;-74
2024/03/22 05:34:11;;;;;;;;;;;;;;;2.39;84.81;93181.50;5042221;28;19920;-74
2024/03/22 05:36:36;;;;;;;;;;;;;;;2.47;84.81;93186.56;5037861;28;20381;-75
2024/03/22 05:39:02;;;;;;;;;;;;;;;2.61;84.51;93190.19;5036676;28;19916;-73
2024/03/22 05:41:27;;;;;;;;;;;;;;;2.66;84.54;93190.50;5043142;28;19912;-74
2024/03/22 05:43:52;;;;;;;;;;;;;;;2.80;84.29;93194.13;5039812;28;19967;-74
2024/03/22 05:46:18;;;;;;;;;;;;;;;2.85;84.14;93188.53;5044963;28;20820;-74
2024/03/22 05:48:43;;;;;;;;;;;;;;;2.96;84.92;93197.53;5031398;28;19917;-74
2024/03/22 05:51:08;;;;;;;;;;;;;;;3.12;83.89;93196.72;5036859;28;19913;-74
2024/03/22 05:53:33;;;;;;;;;;;;;;;3.21;82.95;93198.25;5032737;28;19917;-75
2024/03/22 05:55:59;;;;;;;;;;;;;;;3.41;83.11;93195.34;5035367;28;19917;-75
2024/03/22 05:58:24;;;;;;;;;;;;;;;3.61;81.94;93192.38;5035865;28;19944;-75
2024/03/22 06:00:49;;;;;;;;;;;;;;;3.78;81.71;93203.25;5042833;28;20019;-75
2024/03/22 06:03:15;;;;;;;;;;;;;;;3.96;81.02;93190.28;5038673;28;19974;-75
2024/03/22 06:05:40;;;;;;;;;;;;;;;4.18;80.14;93198.06;5036119;28;19920;-76
2024/03/22 06:08:06;;;;;;;;;;;;;;;4.36;79.22;93200.28;5038740;28;19926;-76
2024/03/22 06:10:31;;;;;;;;;;;;;;;4.54;78.13;93200.00;5035680;28;20007;-76
2024/03/22 06:12:57;;;;;;;;;;;;;;;4.76;79.08;93195.03;5035651;28;19913;-76
2024/03/22 06:15:22;;;;;;;;;;;;;;;4.96;78.54;93197.06;5044572;28;19913;-76
2024/03/22 06:17:48;;;;;;;;;;;;;;;5.18;78.04;93195.38;5032666;28;20040;-76
2024/03/22 06:20:13;;;;;;;;;;;;;;;5.39;77.24;93193.88;5043944;28;19955;-76
2024/03/22 06:22:39;;;;;;;;;;;;;;;5.64;74.95;93197.88;5038422;28;19916;-76
2024/03/22 06:25:04;;;;;;;;;;;;;;;5.83;73.89;93196.53;5043954;28;19912;-76
2024/03/22 06:27:30;;;;;;;;;;;;;;;6.01;74.02;93203.75;5037510;28;19928;-75
2024/03/22 06:29:55;;;;;;;;;;;;;;;6.25;73.92;93200.06;5037899;28;19920;-76
2024/03/22 06:32:20;;;;;;;;;;;;;;;6.47;73.29;93201.84;5040167;28;19916;-75
2024/03/22 06:34:46;;;;;;;;;;;;;;;6.59;70.81;93204.66;5048045;28;19924;-75
2024/03/22 06:37:11;;;;;;;;;;;;;;;6.71;70.68;93200.63;5035869;28;20345;-75
2024/03/22 06:39:36;;;;;;;;;;;;;;;6.88;69.02;93210.56;5048862;28;20332;-75
2024/03/22 06:42:02;;;;;;;;;;;;;;;7.03;69.29;93211.25;5040427;28;20540;-75
2024/03/22 06:44:27;;;;;;;;;;;;;;;7.15;69.81;93210.72;5047100;28;19912;-75
2024/03/22 06:46:53;;;;;;;;;;;;;;;7.52;68.23;93206.19;5044823;28;19927;-74
2024/03/22 06:49:18;;;;;;;;;;;;;;;7.44;65.21;93219.13;5041710;28;19913;-74
2024/03/22 06:51:44;;;;;;;;;;;;;;;7.59;64.86;93213.91;5038225;28;20013;-75
2024/03/22 06:54:09;;;;;;;;;;;;;;;7.70;65.13;93212.53;5046644;28;19952;-75
2024/03/22 06:56:35;;;;;;;;;;;;;;;7.81;64.41;93216.31;5041517;28;19963;-75
2024/03/22 06:59:00;;;;;;;;;;;;;;;8.12;66.55;93215.03;5047692;28;19952;-75
2024/03/22 07:01:25;;;;;;;;;;;;;;;8.42;65.75;93212.09;5045701;28;19917;-75
2024/03/22 07:03:53;;;;;;;;;;;;;;;8.67;65.27;93209.00;5043149;28;20893;-75
2024/03/22 07:06:18;;;;;;;;;;;;;;;8.89;63.00;93219.81;5034203;28;19920;-74
2024/03/22 07:08:43;;;;;;;;;;;;;;;8.84;62.69;93217.06;5041965;28;19913;-75
2024/03/22 07:11:09;;;;;;;;;;;;;;;8.93;62.63;93215.88;5045696;28;20179;-74
2024/03/22 07:13:34;;;;;;;;;;;;;;;9.05;62.28;93216.06;5042509;28;20537;-74
2024/03/22 07:16:00;;;;;;;;;;;;;;;8.88;62.13;93217.47;5041344;28;20011;-74
2024/03/22 07:18:26;;;;;;;;;;;;;;;8.67;63.06;93216.69;5040007;28;20411;-74
2024/03/22 07:20:51;;;;;;;;;;;;;;;9.03;62.36;93214.69;5045663;28;19943;-74
2024/03/22 07:23:16;;;;;;;;;;;;;;;9.19;60.76;93213.47;5042425;28;19916;-75
2024/03/22 07:25:48;;;;;;;;;;;;;;;8.92;59.05;93218.63;5044115;28;19917;-74
2024/03/22 07:28:14;;;;;;;;;;;;;;;9.21;56.71;93226.84;5032361;28;19923;-74
2024/03/22 07:30:39;;;;;;;;;;;;;;;9.39;59.14;93215.19;5046006;28;20007;-74
2024/03/22 07:33:04;;;;;;;;;;;;;;;9.20;57.29;93220.94;5040380;28;20304;-75
2024/03/22 07:35:30;;;;;;;;;;;;;;;9.43;54.90;93224.84;5038949;28;19974;-75
2024/03/22 07:37:56;;;;;;;;;;;;;;;9.41;56.89;93221.69;5034765;28;19921;-74
2024/03/22 07:40:21;;;;;;;;;;;;;;;9.54;55.15;93231.09;5038360;28;20389;-74
2024/03/22 07:42:47;;;;;;;;;;;;;;;9.45;54.65;93230.53;5033876;28;19963;-74
2024/03/22 07:45:12;;;;;;;;;;;;;;;9.40;54.46;93237.28;5044204;28;19923;-74
2024/03/22 07:47:38;;;;;;;;;;;;;;;9.65;57.62;93221.22;5047251;28;19991;-74
2024/03/22 07:50:04;;;;;;;;;;;;;;;9.46;55.53;93234.72;5039669;28;20016;-74
2024/03/22 07:52:29;;;;;;;;;;;;;;;9.30;54.31;93230.78;5040448;28;20000;-74
2024/03/22 07:54:54;;;;;;;;;;;;;;;9.17;53.82;93234.16;5041436;28;19924;-74
2024/03/22 07:57:20;;;;;;;;;;;;;;;9.47;55.08;93241.41;5038283;28;19917;-74
2024/03/22 07:59:45;;;;;;;;;;;;;;;9.57;53.94;93243.53;5039961;28;19920;-75
2024/03/22 08:02:11;;;;;;;;;;;;;;;9.59;53.78;93233.84;5044900;28;19928;-74
2024/03/22 08:04:36;;;;;;;;;;;;;;;9.91;55.02;93238.28;5045926;28;20443;-74
2024/03/22 08:07:01;;;;;;;;;;;;;;;9.84;53.40;93240.09;5039181;28;19963;-74
2024/03/22 08:09:27;;;;;;;;;;;;;;;9.78;51.91;93251.97;5037505;28;20454;-74
2024/03/22 08:11:52;;;;;;;;;;;;;;;10.04;51.33;93239.97;5035128;28;19921;-75
2024/03/22 08:14:17;;;;;;;;;;;;;;;10.00;50.85;93249.09;5041283;28;19917;-75
2024/03/22 08:16:43;;;;;;;;;;;;;;;10.15;50.86;93241.91;5034867;28;19921;-75
2024/03/22 08:19:08;;;;;;;;;;;;;;;9.90;52.05;93241.81;5043536;28;19960;-75
2024/03/22 08:21:34;;;;;;;;;;;;;;;9.88;51.78;93252.31;5041013;28;19921;-76
2024/03/22 08:23:59;;;;;;;;;;;;;;;10.14;51.25;93248.03;5031132;28;19980;-75
2024/03/22 08:26:25;;;;;;;;;;;;;;;10.19;50.29;93244.06;5035131;28;19921;-75
2024/03/22 08:28:50;;;;;;;;;;;;;;;9.85;50.40;93244.22;5035051;28;20044;-75
2024/03/22 08:31:16;;;;;;;;;;;;;;;9.91;51.53;93243.44;5046366;28;19952;-75
2024/03/22 08:33:42;;;;;;;;;;;;;;;10.37;49.99;93243.38;5043429;28;20288;-76
2024/03/22 08:36:08;;;;;;;;;;;;;;;10.28;50.08;93259.00;5036939;28;19925;-76
2024/03/22 08:38:33;;;;;;;;;;;;;;;9.82;50.57;93253.09;5039217;28;20327;-75
2024/03/22 08:40:58;;;;;;;;;;;;;;;10.00;50.99;93249.88;5043034;28;20077;-76
2024/03/22 08:43:25;;;;;;;;;;;;;;;10.06;50.24;93244.91;5034591;28;19920;-75
2024/03/22 08:45:51;;;;;;;;;;;;;;;10.23;51.14;93250.38;5038272;28;20733;-75
2024/03/22 08:48:17;;;;;;;;;;;;;;;10.04;49.40;93263.09;5040659;28;19912;-75
2024/03/22 08:50:43;;;;;;;;;;;;;;;10.39;49.96;93259.34;5029282;28;19988;-76
2024/03/22 08:53:08;;;;;;;;;;;;;;;10.22;49.53;93262.41;5017125;28;19956;-75
2024/03/22 08:55:33;;;;;;;;;;;;;;;10.82;51.22;93260.47;5038942;28;20049;-76
2024/03/22 08:57:59;;;;;;;;;;;;;;;11.00;48.23;93266.66;5040396;28;19919;-76
2024/03/22 09:00:24;;;;;;;;;;;;;;;10.81;48.44;93257.13;5039694;28;20007;-75
2024/03/22 09:02:49;;;;;;;;;;;;;;;10.72;49.19;93250.66;5032474;28;19921;-76
2024/03/22 09:05:15;;;;;;;;;;;;;;;10.93;47.96;93256.44;5039361;28;19917;-76
2024/03/22 09:07:40;;;;;;;;;;;;;;;11.02;47.33;93259.53;5027663;28;20020;-76
2024/03/22 09:10:06;;;;;;;;;;;;;;;11.06;47.18;93250.41;5037520;28;19923;-76
2024/03/22 09:12:32;;;;;;;;;;;;;;;11.41;48.63;93249.88;5036388;28;19913;-76
2024/03/22 09:14:57;;;;;;;;;;;;;;;11.62;44.13;93256.38;5041755;28;19928;-76
2024/03/22 09:17:22;;;;;;;;;;;;;;;11.81;46.59;93250.44;5038769;28;19920;-75
2024/03/22 09:19:48;;;;;;;;;;;;;;;12.11;46.12;93244.56;5043158;28;19916;-76
2024/03/22 09:22:14;;;;;;;;;;;;;;;12.38;46.36;93236.50;5034654;28;19924;-76
2024/03/22 09:24:40;;;;;;;;;;;;;;;12.32;45.21;93245.91;5036272;28;19923;-77
2024/03/22 09:27:08;;;;;;;;;;;;;;;12.05;43.81;93246.25;5043440;28;19916;-76
2024/03/22 09:29:34;;;;;;;;;;;;;;;12.17;44.06;93243.69;5037078;28;20015;-76
2024/03/22 09:31:59;;;;;;;;;;;;;;;12.25;45.67;93240.03;5037034;28;19991;-76
2024/03/22 09:34:24;;;;;;;;;;;;;;;12.39;44.47;93241.44;5022160;28;19919;-76
2024/03/22 09:36:50;;;;;;;;;;;;;;;12.26;44.37;93239.00;5033984;28;20292;-76
2024/03/22 09:39:15;;;;;;;;;;;;;;;12.06;44.87;93234.13;5031148;28;19925;-76
2024/03/22 09:41:42;;;;;;;;;;;;;;;11.56;45.28;93228.94;5027115;28;19921;-76
2024/03/22 09:44:12;;;;;;;;;;;;;;;12.10;45.82;93225.78;5021198;28;19920;-75
2024/03/22 09:46:38;;;;;;;;;;;;;;;12.73;44.69;93222.88;5040454;28;19913;-76
2024/03/22 09:49:04;;;;;;;;;;;;;;;12.96;44.98;93224.72;5032382;28;19924;-77
2024/03/22 09:51:29;;;;;;;;;;;;;;;12.70;44.06;93224.13;5039874;28;19916;-76
2024/03/22 09:53:55;;;;;;;;;;;;;;;13.16;45.44;93221.03;5039538;28;20622;-77
2024/03/22 09:56:20;;;;;;;;;;;;;;;13.35;42.17;93215.72;5040323;28;20412;-77
2024/03/22 09:58:46;;;;;;;;;;;;;;;13.18;44.00;93213.84;5038788;28;20392;-77
2024/03/22 10:01:12;;;;;;;;;;;;;;;12.64;44.19;93234.53;5041733;28;20728;-76
2024/03/22 10:03:37;;;;;;;;;;;;;;;12.80;44.14;93217.63;5036951;28;19928;-76
2024/03/22 10:06:03;;;;;;;;;;;;;;;13.09;43.95;93215.97;5038646;28;19917;-77
2024/03/22 10:08:28;;;;;;;;;;;;;;;12.58;44.21;93225.91;5039414;28;19928;-76
2024/03/22 10:10:53;;;;;;;;;;;;;;;12.45;45.12;93224.28;5040552;28;19916;-76
2024/03/22 10:13:18;;;;;;;;;;;;;;;12.53;44.08;93215.47;5040038;28;19923;-76
2024/03/22 10:15:44;;;;;;;;;;;;;;;13.03;45.83;93208.34;5039888;28;19932;-76
2024/03/22 10:18:09;;;;;;;;;;;;;;;12.69;43.54;93216.63;5038915;28;20302;-76
2024/03/22 10:20:35;;;;;;;;;;;;;;;13.14;44.03;93217.09;5041065;28;19916;-76
2024/03/22 10:23:00;;;;;;;;;;;;;;;13.19;42.38;93219.78;5040092;28;20877;-76
2024/03/22 10:25:27;;;;;;;;;;;;;;;13.22;42.93;93217.53;5038331;28;19982;-77
2024/03/22 10:27:53;;;;;;;;;;;;;;;13.11;43.64;93202.84;5038644;28;19917;-77
2024/03/22 10:30:18;;;;;;;;;;;;;;;13.46;44.26;93202.06;5039508;28;19974;-77
2024/03/22 10:32:44;;;;;;;;;;;;;;;13.62;44.98;93199.78;5039847;28;19920;-76
2024/03/22 10:35:11;;;;;;;;;;;;;;;13.23;42.32;93203.63;5040242;28;19916;-77
2024/03/22 10:37:37;;;;;;;;;;;;;;;12.80;42.93;93199.59;5038181;28;19920;-76
2024/03/22 10:40:20;;;;;;;;;;;;;;;12.59;44.05;93193.19;5038964;28;20384;-76
2024/03/22 10:42:46;;;;;;;;;;;;;;;12.72;43.59;93192.97;5040497;28;19917;-76
2024/03/22 10:45:12;;;;;;;;;;;;;;;12.69;45.05;93189.03;5038982;28;19916;-76
2024/03/22 10:47:37;;;;;;;;;;;;;;;12.62;43.02;93197.88;5040167;28;20372;-76
2024/03/22 10:50:07;;;;;;;;;;;;;;;12.59;43.14;93188.03;5039949;28;19960;-76
2024/03/22 10:52:38;;;;;;;;;;;;;;;12.76;44.05;93185.56;5021344;28;19923;-77
2024/03/22 10:55:06;;;;;;;;;;;;;;;12.39;43.86;93186.53;5039277;28;20525;-76
2024/03/22 10:57:36;;;;;;;;;;;;;;;12.50;43.60;93182.44;5041261;28;19939;-76
2024/03/22 11:00:02;;;;;;;;;;;;;;;12.88;42.20;93190.75;5040272;28;19940;-76
2024/03/22 11:02:27;;;;;;;;;;;;;;;12.67;43.23;93174.81;5040439;28;19920;-76
2024/03/22 11:04:59;;;;;;;;;;;;;;;12.73;42.99;93173.91;5042668;28;19916;-77
2024/03/22 11:07:29;;;;;;;;;;;;;;;13.21;42.67;93168.75;5041302;28;19982;-76
2024/03/22 11:09:58;;;;;;;;;;;;;;;12.99;43.31;93166.75;5042756;28;20006;-76
2024/03/22 11:12:26;;;;;;;;;;;;;;;13.23;43.78;93161.56;5042385;28;19921;-77
2024/03/22 11:14:52;;;;;;;;;;;;;;;13.08;41.63;93167.19;5042865;28;19921;-76
2024/03/22 11:17:18;;;;;;;;;;;;;;;13.20;42.25;93162.81;5044403;28;20002;-76
2024/03/22 11:19:43;;;;;;;;;;;;;;;12.90;42.72;93168.09;5044292;28;19999;-76
2024/03/22 11:22:09;;;;;;;;;;;;;;;13.32;43.08;93162.78;5040128;28;20801;-76
2024/03/22 11:24:37;;;;;;;;;;;;;;;12.97;42.83;93168.78;5042522;28;19971;-76
2024/03/22 11:27:02;;;;;;;;;;;;;;;13.45;41.28;93172.06;5043257;28;20007;-76
2024/03/22 11:29:28;;;;;;;;;;;;;;;13.66;42.24;93158.81;5042403;28;19917;-77
2024/03/22 11:31:53;;;;;;;;;;;;;;;13.31;42.28;93161.22;5041620;28;19944;-76
2024/03/22 11:34:18;;;;;;;;;;;;;;;13.18;38.37;93164.84;5041694;28;20297;-76
2024/03/22 11:36:44;;;;;;;;;;;;;;;13.74;39.21;93154.06;5037746;28;20369;-77
2024/03/22 11:39:09;;;;;;;;;;;;;;;12.89;41.59;93161.38;5041820;28;19921;-76
2024/03/22 11:41:35;;;;;;;;;;;;;;;12.74;41.61;93159.25;5041856;28;20305;-76
2024/03/22 11:44:01;;;;;;;;;;;;;;;12.69;41.81;93157.34;5040805;28;19917;-76
2024/03/22 11:46:27;;;;;;;;;;;;;;;12.89;43.51;93145.91;5039995;28;20400;-76
2024/03/22 11:48:53;;;;;;;;;;;;;;;13.01;41.51;93151.81;5042064;28;20380;-76
2024/03/22 11:51:18;;;;;;;;;;;;;;;13.38;41.66;93147.41;5041260;28;20478;-76
2024/03/22 11:53:53;;;;;;;;;;;;;;;13.56;40.92;93138.75;5042420;28;20359;-76
2024/03/22 11:56:19;;;;;;;;;;;;;;;14.09;41.05;93134.28;5041837;28;19958;-77
2024/03/22 11:58:48;;;;;;;;;;;;;;;14.44;39.78;93129.88;5038102;28;20003;-76
2024/03/22 12:01:17;;;;;;;;;;;;;;;13.48;39.97;93127.78;5041432;28;19920;-77
2024/03/22 12:03:46;;;;;;;;;;;;;;;14.00;40.58;93131.28;5041532;28;19924;-77
2024/03/22 12:06:12;;;;;;;;;;;;;;;13.38;40.99;93132.69;5029119;28;19921;-76
2024/03/22 12:08:40;;;;;;;;;;;;;;;12.92;40.46;93133.34;5038504;28;19919;-76
2024/03/22 12:11:06;;;;;;;;;;;;;;;13.17;40.91;93127.16;5040214;28;19916;-76
2024/03/22 12:13:32;;;;;;;;;;;;;;;13.57;39.68;93119.69;5035977;28;19921;-77
2024/03/22 12:15:57;;;;;;;;;;;;;;;13.74;40.57;93120.50;5041430;28;20712;-77
2024/03/22 12:18:22;;;;;;;;;;;;;;;13.74;39.97;93114.53;5042106;28;20419;-77
2024/03/22 12:20:48;;;;;;;;;;;;;;;13.72;41.19;93104.47;5039779;28;20035;-76
2024/03/22 12:23:13;;;;;;;;;;;;;;;13.95;41.05;93107.16;5039575;28;19963;-76
2024/03/22 12:25:38;;;;;;;;;;;;;;;14.16;39.25;93124.56;5040935;28;19920;-76
2024/03/22 12:28:04;;;;;;;;;;;;;;;14.01;38.85;93114.78;5041855;28;20817;-77
2024/03/22 12:30:29;;;;;;;;;;;;;;;14.04;39.46;93108.34;5037106;28;19964;-76
2024/03/22 12:32:55;;;;;;;;;;;;;;;14.23;38.60;93102.97;5040453;28;20029;-77
2024/03/22 12:35:21;;;;;;;;;;;;;;;14.51;38.42;93103.88;5038563;28;19920;-77
2024/03/22 12:37:46;;;;;;;;;;;;;;;14.27;38.08;93104.81;5041085;28;19976;-77
2024/03/22 12:40:13;;;;;;;;;;;;;;;14.63;38.07;93096.81;5040961;28;19917;-77
2024/03/22 12:42:39;;;;;;;;;;;;;;;14.49;38.02;93095.59;5039878;28;20722;-77
2024/03/22 12:45:04;;;;;;;;;;;;;;;13.57;38.60;93096.44;5040086;28;19923;-77